sensor_id;sensor_type;location;lat;lon;timestamp;pressure;altitude;pressure_sealevel;temperature;humidity
73063;BME280;61230;46.328;19.972;2024-03-22T00:02:09;100843.97;;;8.02;74.88
73063;BME280;61230;46.328;19.972;2024-03-22T00:04:37;100845.25;;;7.97;75.18
73063;BME280;61230;46.328;19.972;2024-03-22T00:07:03;100848.47;;;8.00;75.13
73063;BME280;61230;46.328;19.972;2024-03-22T00:09:30;100793.91;;;7.60;74.03
73063;BME280;61230;46.328;19.972;2024-03-22T00:11:57;100792.19;;;7.71;73.84
73063;BME280;61230;46.328;19.972;2024-03-22T00:14:23;100849.09;;;8.04;74.18
73063;BME280;61230;46.328;19.972;2024-03-22T00:16:50;100836.59;;;8.07;75.37
73063;BME280;61230;46.328;19.972;2024-03-22T00:19:17;100844.47;;;8.07;76.74
73063;BME280;61230;46.328;19.972;2024-03-22T00:21:43;100837.66;;;8.05;77.89
73063;BME280;61230;46.328;19.972;2024-03-22T00:24:10;100789.91;;;7.78;76.26
73063;BME280;61230;46.328;19.972;2024-03-22T00:26:37;100834.34;;;8.03;77.97
73063;BME280;61230;46.328;19.972;2024-03-22T00:29:03;100831.72;;;8.03;76.45
73063;BME280;61230;46.328;19.972;2024-03-22T00:31:30;100830.47;;;7.96;75.62
73063;BME280;61230;46.328;19.972;2024-03-22T00:33:57;100826.19;;;7.95;79.79
73063;BME280;61230;46.328;19.972;2024-03-22T00:36:23;100835.47;;;7.88;79.35
73063;BME280;61230;46.328;19.972;2024-03-22T00:38:50;100833.50;;;7.79;81.74
73063;BME280;61230;46.328;19.972;2024-03-22T00:41:17;100828.72;;;7.73;80.63
73063;BME280;61230;46.328;19.972;2024-03-22T00:43:43;100835.16;;;7.69;82.14
73063;BME280;61230;46.328;19.972;2024-03-22T00:46:10;100764.06;;;7.15;80.92
73063;BME280;61230;46.328;19.972;2024-03-22T00:48:37;100812.28;;;7.47;79.20
73063;BME280;61230;46.328;19.972;2024-03-22T00:51:04;100783.38;;;7.25;79.46
73063;BME280;61230;46.328;19.972;2024-03-22T00:53:30;100826.13;;;7.49;79.99
73063;BME280;61230;46.328;19.972;2024-03-22T00:55:57;100779.19;;;7.22;80.48
73063;BME280;61230;46.328;19.972;2024-03-22T00:58:28;100824.53;;;7.46;80.77
73063;BME280;61230;46.328;19.972;2024-03-22T01:00:55;100823.25;;;7.52;79.29
73063;BME280;61230;46.328;19.972;2024-03-22T01:03:22;100826.94;;;7.49;79.60
73063;BME280;61230;46.328;19.972;2024-03-22T01:05:49;100820.97;;;7.47;81.58
73063;BME280;61230;46.328;19.972;2024-03-22T01:08:16;100749.13;;;7.04;79.46
73063;BME280;61230;46.328;19.972;2024-03-22T01:10:43;100820.75;;;7.50;78.71
73063;BME280;61230;46.328;19.972;2024-03-22T01:13:09;100823.16;;;7.53;81.65
73063;BME280;61230;46.328;19.972;2024-03-22T01:15:36;100819.91;;;7.50;81.32
73063;BME280;61230;46.328;19.972;2024-03-22T01:18:03;100825.38;;;7.47;78.13
73063;BME280;61230;46.328;19.972;2024-03-22T01:20:30;100822.03;;;7.45;77.26
73063;BME280;61230;46.328;19.972;2024-03-22T01:22:56;100820.13;;;7.47;76.18
73063;BME280;61230;46.328;19.972;2024-03-22T01:25:23;100768.97;;;7.19;79.01
73063;BME280;61230;46.328;19.972;2024-03-22T01:27:49;100818.59;;;7.44;75.56
73063;BME280;61230;46.328;19.972;2024-03-22T01:30:16;100769.09;;;7.05;75.14
73063;BME280;61230;46.328;19.972;2024-03-22T01:32:43;100812.34;;;7.34;77.22
73063;BME280;61230;46.328;19.972;2024-03-22T01:35:09;100801.69;;;7.25;78.73
73063;BME280;61230;46.328;19.972;2024-03-22T01:37:36;100719.94;;;6.61;76.92
73063;BME280;61230;46.328;19.972;2024-03-22T01:40:03;100808.12;;;7.08;77.05
73063;BME280;61230;46.328;19.972;2024-03-22T01:42:34;100750.88;;;6.80;77.12
73063;BME280;61230;46.328;19.972;2024-03-22T01:45:00;100802.50;;;7.02;78.39
73063;BME280;61230;46.328;19.972;2024-03-22T01:47:27;100801.78;;;7.00;80.69
73063;BME280;61230;46.328;19.972;2024-03-22T01:49:54;100807.88;;;6.87;79.95
73063;BME280;61230;46.328;19.972;2024-03-22T01:52:21;100790.31;;;6.77;80.15
73063;BME280;61230;46.328;19.972;2024-03-22T01:54:49;100806.50;;;6.82;80.78
73063;BME280;61230;46.328;19.972;2024-03-22T01:57:16;100802.56;;;6.76;80.91
73063;BME280;61230;46.328;19.972;2024-03-22T01:59:43;100809.69;;;6.74;81.02
73063;BME280;61230;46.328;19.972;2024-03-22T02:02:09;100804.94;;;6.79;81.80
73063;BME280;61230;46.328;19.972;2024-03-22T02:04:37;100803.41;;;6.64;79.10
73063;BME280;61230;46.328;19.972;2024-03-22T02:07:04;100760.34;;;6.45;80.38
73063;BME280;61230;46.328;19.972;2024-03-22T02:09:31;100812.00;;;6.66;81.41
73063;BME280;61230;46.328;19.972;2024-03-22T02:11:57;100811.47;;;6.49;80.62
73063;BME280;61230;46.328;19.972;2024-03-22T02:14:24;100809.38;;;6.54;80.10
73063;BME280;61230;46.328;19.972;2024-03-22T02:16:51;100803.50;;;6.50;80.09
73063;BME280;61230;46.328;19.972;2024-03-22T02:19:18;100771.97;;;6.15;80.46
73063;BME280;61230;46.328;19.972;2024-03-22T02:21:45;100804.03;;;6.43;84.02
73063;BME280;61230;46.328;19.972;2024-03-22T02:24:11;100758.16;;;6.13;85.64
73063;BME280;61230;46.328;19.972;2024-03-22T02:26:38;100807.19;;;6.35;84.48
73063;BME280;61230;46.328;19.972;2024-03-22T02:29:05;100814.06;;;6.36;84.16
73063;BME280;61230;46.328;19.972;2024-03-22T02:31:34;100810.72;;;6.34;86.07
73063;BME280;61230;46.328;19.972;2024-03-22T02:34:01;100759.94;;;6.00;89.06
73063;BME280;61230;46.328;19.972;2024-03-22T02:36:27;100809.69;;;6.24;87.62
73063;BME280;61230;46.328;19.972;2024-03-22T02:38:54;100808.94;;;6.22;89.47
73063;BME280;61230;46.328;19.972;2024-03-22T02:41:21;100760.84;;;5.99;86.58
73063;BME280;61230;46.328;19.972;2024-03-22T02:43:48;100813.56;;;6.18;90.28
73063;BME280;61230;46.328;19.972;2024-03-22T02:46:14;100806.91;;;5.88;87.57
73063;BME280;61230;46.328;19.972;2024-03-22T02:48:41;100814.84;;;5.86;86.64
73063;BME280;61230;46.328;19.972;2024-03-22T02:51:07;100809.56;;;5.73;84.99
73063;BME280;61230;46.328;19.972;2024-03-22T02:53:34;100814.78;;;5.73;85.13
73063;BME280;61230;46.328;19.972;2024-03-22T02:56:01;100812.69;;;5.66;84.71
73063;BME280;61230;46.328;19.972;2024-03-22T02:58:27;100806.00;;;5.74;84.01
73063;BME280;61230;46.328;19.972;2024-03-22T03:00:54;100807.53;;;5.91;85.45
73063;BME280;61230;46.328;19.972;2024-03-22T03:03:21;100804.00;;;5.92;88.22
73063;BME280;61230;46.328;19.972;2024-03-22T03:05:47;100810.28;;;5.90;89.01
73063;BME280;61230;46.328;19.972;2024-03-22T03:08:14;100813.94;;;5.87;89.98
73063;BME280;61230;46.328;19.972;2024-03-22T03:10:43;100806.69;;;5.91;87.39
73063;BME280;61230;46.328;19.972;2024-03-22T03:13:11;100797.62;;;5.96;86.64
73063;BME280;61230;46.328;19.972;2024-03-22T03:15:38;100802.97;;;5.95;88.53
73063;BME280;61230;46.328;19.972;2024-03-22T03:18:04;100796.47;;;5.88;87.90
73063;BME280;61230;46.328;19.972;2024-03-22T03:20:31;100807.75;;;5.88;88.69
73063;BME280;61230;46.328;19.972;2024-03-22T03:22:57;100802.91;;;5.82;90.62
73063;BME280;61230;46.328;19.972;2024-03-22T03:25:26;100802.28;;;5.78;89.15
73063;BME280;61230;46.328;19.972;2024-03-22T03:27:52;100795.97;;;5.68;88.36
73063;BME280;61230;46.328;19.972;2024-03-22T03:30:19;100710.03;;;5.13;89.14
73063;BME280;61230;46.328;19.972;2024-03-22T03:32:46;100795.97;;;5.68;90.56
73063;BME280;61230;46.328;19.972;2024-03-22T03:35:12;100795.63;;;5.60;91.90
73063;BME280;61230;46.328;19.972;2024-03-22T03:37:39;100796.16;;;5.53;93.50
73063;BME280;61230;46.328;19.972;2024-03-22T03:40:06;100747.66;;;5.09;91.50
73063;BME280;61230;46.328;19.972;2024-03-22T03:42:33;100808.22;;;5.41;93.24
73063;BME280;61230;46.328;19.972;2024-03-22T03:44:59;100750.25;;;5.09;93.34
73063;BME280;61230;46.328;19.972;2024-03-22T03:47:26;100749.88;;;5.15;96.01
73063;BME280;61230;46.328;19.972;2024-03-22T03:49:52;100754.00;;;5.05;100.00
73063;BME280;61230;46.328;19.972;2024-03-22T03:52:19;100801.06;;;5.31;100.00
73063;BME280;61230;46.328;19.972;2024-03-22T03:54:46;100808.25;;;5.27;100.00
73063;BME280;61230;46.328;19.972;2024-03-22T03:57:12;100798.16;;;5.35;96.62
73063;BME280;61230;46.328;19.972;2024-03-22T03:59:39;100804.09;;;5.10;97.97
73063;BME280;61230;46.328;19.972;2024-03-22T04:02:05;100802.19;;;5.27;100.00
73063;BME280;61230;46.328;19.972;2024-03-22T04:04:32;100789.87;;;5.29;100.00
73063;BME280;61230;46.328;19.972;2024-03-22T04:06:59;100784.66;;;5.29;100.00
73063;BME280;61230;46.328;19.972;2024-03-22T04:09:25;100798.66;;;5.28;99.96
73063;BME280;61230;46.328;19.972;2024-03-22T04:11:52;100751.78;;;4.99;100.00
73063;BME280;61230;46.328;19.972;2024-03-22T04:14:18;100791.03;;;5.25;100.00
73063;BME280;61230;46.328;19.972;2024-03-22T04:16:45;100749.94;;;4.87;99.53
73063;BME280;61230;46.328;19.972;2024-03-22T04:19:12;100804.72;;;5.14;100.00
73063;BME280;61230;46.328;19.972;2024-03-22T04:21:38;100810.34;;;5.08;100.00
73063;BME280;61230;46.328;19.972;2024-03-22T04:24:05;100820.31;;;5.01;100.00
73063;BME280;61230;46.328;19.972;2024-03-22T04:26:31;100821.91;;;4.90;100.00
73063;BME280;61230;46.328;19.972;2024-03-22T04:28:58;100822.84;;;4.89;100.00
73063;BME280;61230;46.328;19.972;2024-03-22T04:31:24;100829.66;;;4.63;100.00
73063;BME280;61230;46.328;19.972;2024-03-22T04:33:51;100828.34;;;4.70;100.00
73063;BME280;61230;46.328;19.972;2024-03-22T04:36:18;100823.22;;;4.69;100.00
73063;BME280;61230;46.328;19.972;2024-03-22T04:38:44;100824.63;;;4.74;100.00
73063;BME280;61230;46.328;19.972;2024-03-22T04:41:11;100819.87;;;4.81;100.00
73063;BME280;61230;46.328;19.972;2024-03-22T04:43:37;100828.00;;;4.76;100.00
73063;BME280;61230;46.328;19.972;2024-03-22T04:46:04;100777.47;;;4.50;100.00
73063;BME280;61230;46.328;19.972;2024-03-22T04:48:31;100826.22;;;4.91;100.00
73063;BME280;61230;46.328;19.972;2024-03-22T04:50:57;100827.59;;;4.96;100.00
73063;BME280;61230;46.328;19.972;2024-03-22T04:53:24;100773.88;;;4.65;100.00
73063;BME280;61230;46.328;19.972;2024-03-22T04:55:51;100818.62;;;5.14;100.00
73063;BME280;61230;46.328;19.972;2024-03-22T04:58:19;100814.16;;;5.16;100.00
73063;BME280;61230;46.328;19.972;2024-03-22T05:00:48;100823.41;;;5.35;100.00
73063;BME280;61230;46.328;19.972;2024-03-22T05:03:15;100819.50;;;5.42;100.00
73063;BME280;61230;46.328;19.972;2024-03-22T05:05:42;100769.41;;;5.22;100.00
73063;BME280;61230;46.328;19.972;2024-03-22T05:08:09;100814.03;;;5.59;100.00
73063;BME280;61230;46.328;19.972;2024-03-22T05:10:36;100779.00;;;5.49;100.00
73063;BME280;61230;46.328;19.972;2024-03-22T05:13:03;100812.47;;;5.69;100.00
73063;BME280;61230;46.328;19.972;2024-03-22T05:15:29;100810.00;;;5.80;100.00
73063;BME280;61230;46.328;19.972;2024-03-22T05:17:57;100811.56;;;5.82;100.00
73063;BME280;61230;46.328;19.972;2024-03-22T05:20:24;100818.84;;;5.92;100.00
73063;BME280;61230;46.328;19.972;2024-03-22T05:22:51;100819.06;;;6.01;100.00
73063;BME280;61230;46.328;19.972;2024-03-22T05:25:18;100813.44;;;6.07;100.00
73063;BME280;61230;46.328;19.972;2024-03-22T05:27:45;100816.87;;;6.08;100.00
73063;BME280;61230;46.328;19.972;2024-03-22T05:30:13;100818.78;;;6.18;100.00
73063;BME280;61230;46.328;19.972;2024-03-22T05:32:40;100812.59;;;6.19;100.00
73063;BME280;61230;46.328;19.972;2024-03-22T05:35:07;100775.91;;;6.08;100.00
73063;BME280;61230;46.328;19.972;2024-03-22T05:37:34;100826.81;;;6.53;100.00
73063;BME280;61230;46.328;19.972;2024-03-22T05:40:02;100818.25;;;6.76;100.00
73063;BME280;61230;46.328;19.972;2024-03-22T05:42:30;100783.81;;;6.70;100.00
73063;BME280;61230;46.328;19.972;2024-03-22T05:44:57;100827.78;;;7.14;99.01
73063;BME280;61230;46.328;19.972;2024-03-22T05:47:23;100834.56;;;7.29;98.80
73063;BME280;61230;46.328;19.972;2024-03-22T05:49:50;100831.88;;;7.41;98.67
73063;BME280;61230;46.328;19.972;2024-03-22T05:52:18;100829.56;;;7.49;97.99
73063;BME280;61230;46.328;19.972;2024-03-22T05:54:44;100832.91;;;7.51;96.84
73063;BME280;61230;46.328;19.972;2024-03-22T05:57:11;100836.87;;;7.57;96.41
73063;BME280;61230;46.328;19.972;2024-03-22T05:59:38;100838.91;;;7.65;95.92
73063;BME280;61230;46.328;19.972;2024-03-22T06:02:05;100836.34;;;7.76;96.92
73063;BME280;61230;46.328;19.972;2024-03-22T06:04:32;100830.84;;;7.91;95.33
73063;BME280;61230;46.328;19.972;2024-03-22T06:06:59;100825.50;;;8.04;93.25
73063;BME280;61230;46.328;19.972;2024-03-22T06:09:26;100825.19;;;8.20;89.58
73063;BME280;61230;46.328;19.972;2024-03-22T06:12:14;100791.69;;;8.12;88.60
73063;BME280;61230;46.328;19.972;2024-03-22T06:14:41;100783.84;;;8.23;89.37
73063;BME280;61230;46.328;19.972;2024-03-22T06:17:09;100827.91;;;8.64;88.55
73063;BME280;61230;46.328;19.972;2024-03-22T06:19:36;100830.19;;;8.80;85.81
73063;BME280;61230;46.328;19.972;2024-03-22T06:22:03;100802.53;;;8.76;83.85
73063;BME280;61230;46.328;19.972;2024-03-22T06:24:30;100782.47;;;8.75;81.46
73063;BME280;61230;46.328;19.972;2024-03-22T06:26:57;100831.34;;;9.09;80.21
73063;BME280;61230;46.328;19.972;2024-03-22T06:29:24;100825.53;;;9.16;80.34
73063;BME280;61230;46.328;19.972;2024-03-22T06:31:51;100821.91;;;9.29;82.31
73063;BME280;61230;46.328;19.972;2024-03-22T06:34:19;100796.13;;;9.22;82.16
73063;BME280;61230;46.328;19.972;2024-03-22T06:36:46;100823.66;;;9.50;83.41
73063;BME280;61230;46.328;19.972;2024-03-22T06:39:13;100828.47;;;9.66;83.36
73063;BME280;61230;46.328;19.972;2024-03-22T06:41:41;100818.53;;;9.80;83.58
73063;BME280;61230;46.328;19.972;2024-03-22T06:44:07;100827.97;;;10.04;83.57
73063;BME280;61230;46.328;19.972;2024-03-22T06:46:39;100820.50;;;10.20;85.35
73063;BME280;61230;46.328;19.972;2024-03-22T06:49:06;100833.41;;;10.44;83.17
73063;BME280;61230;46.328;19.972;2024-03-22T06:51:33;100828.62;;;10.58;80.22
73063;BME280;61230;46.328;19.972;2024-03-22T06:57:28;100835.00;;;10.95;75.69
73063;BME280;61230;46.328;19.972;2024-03-22T06:59:55;100840.09;;;11.18;75.53
73063;BME280;61230;46.328;19.972;2024-03-22T07:02:21;100826.81;;;11.38;75.25
73063;BME280;61230;46.328;19.972;2024-03-22T07:04:48;100842.25;;;11.52;73.06
73063;BME280;61230;46.328;19.972;2024-03-22T07:07:15;100832.56;;;11.63;73.66
73063;BME280;61230;46.328;19.972;2024-03-22T07:09:41;100829.53;;;11.86;73.48
73063;BME280;61230;46.328;19.972;2024-03-22T07:12:10;100824.41;;;12.14;73.89
73063;BME280;61230;46.328;19.972;2024-03-22T07:14:36;100792.06;;;11.92;73.59
73063;BME280;61230;46.328;19.972;2024-03-22T07:17:03;100824.41;;;12.14;74.35
73063;BME280;61230;46.328;19.972;2024-03-22T07:19:30;100835.25;;;12.10;75.42
73063;BME280;61230;46.328;19.972;2024-03-22T07:21:56;100831.91;;;11.99;77.94
73063;BME280;61230;46.328;19.972;2024-03-22T07:24:26;100831.47;;;12.13;76.96
73063;BME280;61230;46.328;19.972;2024-03-22T07:26:53;100837.16;;;12.28;76.85
73063;BME280;61230;46.328;19.972;2024-03-22T07:29:20;100834.38;;;12.29;77.12
73063;BME280;61230;46.328;19.972;2024-03-22T07:31:47;100782.22;;;12.04;78.50
73063;BME280;61230;46.328;19.972;2024-03-22T07:34:14;100825.72;;;12.46;79.09
73063;BME280;61230;46.328;19.972;2024-03-22T07:36:41;100830.16;;;12.55;78.66
73063;BME280;61230;46.328;19.972;2024-03-22T07:39:08;100825.12;;;12.62;78.73
73063;BME280;61230;46.328;19.972;2024-03-22T07:41:35;100787.59;;;12.22;79.94
73063;BME280;61230;46.328;19.972;2024-03-22T07:44:02;100777.03;;;12.22;80.02
73063;BME280;61230;46.328;19.972;2024-03-22T07:46:29;100813.09;;;12.50;80.01
73063;BME280;61230;46.328;19.972;2024-03-22T07:48:56;100775.78;;;12.26;80.67
73063;BME280;61230;46.328;19.972;2024-03-22T07:51:23;100811.41;;;12.49;81.36
73063;BME280;61230;46.328;19.972;2024-03-22T07:53:50;100785.44;;;12.54;80.87
73063;BME280;61230;46.328;19.972;2024-03-22T07:56:18;100813.75;;;12.89;79.90
73063;BME280;61230;46.328;19.972;2024-03-22T07:58:45;100815.16;;;13.20;78.97
73063;BME280;61230;46.328;19.972;2024-03-22T08:01:14;100810.13;;;12.99;80.80
73063;BME280;61230;46.328;19.972;2024-03-22T08:03:45;100824.22;;;13.45;79.35
73063;BME280;61230;46.328;19.972;2024-03-22T08:06:11;100812.03;;;13.34;79.27
73063;BME280;61230;46.328;19.972;2024-03-22T08:08:38;100824.66;;;13.40;80.85
73063;BME280;61230;46.328;19.972;2024-03-22T08:11:04;100821.50;;;13.72;78.88
73063;BME280;61230;46.328;19.972;2024-03-22T08:13:31;100827.78;;;13.89;78.24
73063;BME280;61230;46.328;19.972;2024-03-22T08:15:57;100787.97;;;13.55;79.83
73063;BME280;61230;46.328;19.972;2024-03-22T08:18:24;100815.12;;;14.35;77.71
73063;BME280;61230;46.328;19.972;2024-03-22T08:20:51;100815.03;;;14.27;76.70
73063;BME280;61230;46.328;19.972;2024-03-22T08:23:17;100817.38;;;14.56;76.00
73063;BME280;61230;46.328;19.972;2024-03-22T08:25:47;100816.59;;;14.56;76.42
73063;BME280;61230;46.328;19.972;2024-03-22T08:28:13;100823.66;;;14.47;76.88
73063;BME280;61230;46.328;19.972;2024-03-22T08:30:40;100786.94;;;14.52;76.19
73063;BME280;61230;46.328;19.972;2024-03-22T08:33:07;100822.94;;;14.71;75.32
73063;BME280;61230;46.328;19.972;2024-03-22T08:35:33;100826.81;;;14.84;75.07
73063;BME280;61230;46.328;19.972;2024-03-22T08:38:00;100827.03;;;14.91;74.47
73063;BME280;61230;46.328;19.972;2024-03-22T08:40:27;100827.47;;;14.09;77.05
73063;BME280;61230;46.328;19.972;2024-03-22T08:42:54;100821.94;;;14.20;77.93
73063;BME280;61230;46.328;19.972;2024-03-22T08:45:21;100827.31;;;14.80;75.01
73063;BME280;61230;46.328;19.972;2024-03-22T08:47:47;100822.84;;;14.80;74.35
73063;BME280;61230;46.328;19.972;2024-03-22T08:50:14;100783.47;;;14.60;75.29
73063;BME280;61230;46.328;19.972;2024-03-22T08:52:41;100822.22;;;14.86;75.05
73063;BME280;61230;46.328;19.972;2024-03-22T08:55:08;100822.28;;;14.69;77.00
73063;BME280;61230;46.328;19.972;2024-03-22T08:57:37;100825.69;;;14.87;75.31
73063;BME280;61230;46.328;19.972;2024-03-22T09:00:05;100825.19;;;15.25;72.67
73063;BME280;61230;46.328;19.972;2024-03-22T09:02:34;100831.16;;;15.35;73.21
73063;BME280;61230;46.328;19.972;2024-03-22T09:05:01;100838.38;;;14.75;75.97
73063;BME280;61230;46.328;19.972;2024-03-22T09:07:28;100801.66;;;14.80;74.97
73063;BME280;61230;46.328;19.972;2024-03-22T09:09:55;100806.34;;;14.94;74.32
73063;BME280;61230;46.328;19.972;2024-03-22T09:12:21;100848.62;;;15.46;73.53
73063;BME280;61230;46.328;19.972;2024-03-22T09:14:48;100850.97;;;15.49;72.39
73063;BME280;61230;46.328;19.972;2024-03-22T09:17:15;100842.88;;;15.59;72.60
73063;BME280;61230;46.328;19.972;2024-03-22T09:19:41;100797.22;;;14.89;74.02
73063;BME280;61230;46.328;19.972;2024-03-22T09:22:08;100854.28;;;15.51;72.47
73063;BME280;61230;46.328;19.972;2024-03-22T09:24:35;100810.44;;;14.81;74.20
73063;BME280;61230;46.328;19.972;2024-03-22T09:27:01;100854.84;;;15.29;74.74
73063;BME280;61230;46.328;19.972;2024-03-22T09:29:30;100852.16;;;15.63;73.41
73063;BME280;61230;46.328;19.972;2024-03-22T09:31:57;100851.47;;;14.77;76.72
73063;BME280;61230;46.328;19.972;2024-03-22T09:34:24;100846.22;;;15.27;75.02
73063;BME280;61230;46.328;19.972;2024-03-22T09:36:50;100814.06;;;14.54;77.28
73063;BME280;61230;46.328;19.972;2024-03-22T09:39:17;100845.53;;;14.57;79.07
73063;BME280;61230;46.328;19.972;2024-03-22T09:41:44;100835.41;;;14.78;78.38
73063;BME280;61230;46.328;19.972;2024-03-22T09:44:13;100793.50;;;14.74;77.04
73063;BME280;61230;46.328;19.972;2024-03-22T09:46:42;100830.59;;;14.48;78.26
73063;BME280;61230;46.328;19.972;2024-03-22T09:49:09;100831.59;;;14.73;78.23
73063;BME280;61230;46.328;19.972;2024-03-22T09:51:56;100820.53;;;15.27;75.66
73063;BME280;61230;46.328;19.972;2024-03-22T09:54:24;100827.19;;;15.31;75.22
73063;BME280;61230;46.328;19.972;2024-03-22T09:56:52;100829.84;;;14.89;76.73
73063;BME280;61230;46.328;19.972;2024-03-22T09:59:18;100831.44;;;15.16;76.19
73063;BME280;61230;46.328;19.972;2024-03-22T10:01:45;100801.19;;;14.59;78.70
73063;BME280;61230;46.328;19.972;2024-03-22T10:04:13;100828.75;;;15.08;76.78
73063;BME280;61230;46.328;19.972;2024-03-22T10:06:40;100829.63;;;15.25;76.05
73063;BME280;61230;46.328;19.972;2024-03-22T10:09:06;100820.19;;;15.22;76.38
73063;BME280;61230;46.328;19.972;2024-03-22T10:11:35;100825.72;;;15.37;76.34
73063;BME280;61230;46.328;19.972;2024-03-22T10:14:01;100790.06;;;15.23;75.37
73063;BME280;61230;46.328;19.972;2024-03-22T10:16:34;100816.31;;;15.50;76.77
73063;BME280;61230;46.328;19.972;2024-03-22T10:19:00;100811.28;;;15.39;76.07
73063;BME280;61230;46.328;19.972;2024-03-22T10:21:47;100815.12;;;15.45;76.30
73063;BME280;61230;46.328;19.972;2024-03-22T10:24:14;100804.81;;;15.34;75.71
73063;BME280;61230;46.328;19.972;2024-03-22T10:26:41;100797.62;;;15.52;76.01
73063;BME280;61230;46.328;19.972;2024-03-22T10:29:07;100788.34;;;15.80;75.82
73063;BME280;61230;46.328;19.972;2024-03-22T10:31:36;100786.84;;;16.02;77.09
73063;BME280;61230;46.328;19.972;2024-03-22T10:34:03;100785.34;;;16.16;75.29
73063;BME280;61230;46.328;19.972;2024-03-22T10:36:56;100785.00;;;16.27;73.32
73063;BME280;61230;46.328;19.972;2024-03-22T10:39:46;100775.72;;;15.98;74.55
73063;BME280;61230;46.328;19.972;2024-03-22T10:42:50;100747.38;;;15.83;75.39
73063;BME280;61230;46.328;19.972;2024-03-22T10:45:40;100788.19;;;16.06;73.75
73063;BME280;61230;46.328;19.972;2024-03-22T10:48:28;100787.66;;;16.27;73.33
73063;BME280;61230;46.328;19.972;2024-03-22T10:51:15;100782.47;;;16.41;72.27
73063;BME280;61230;46.328;19.972;2024-03-22T10:54:02;100775.66;;;16.47;71.32
73063;BME280;61230;46.328;19.972;2024-03-22T10:56:46;100769.50;;;16.71;70.65
73063;BME280;61230;46.328;19.972;2024-03-22T10:59:47;100770.62;;;16.76;69.60
73063;BME280;61230;46.328;19.972;2024-03-22T11:02:16;100765.44;;;17.21;68.37
73063;BME280;61230;46.328;19.972;2024-03-22T11:04:54;100754.97;;;17.43;67.59
73063;BME280;61230;46.328;19.972;2024-03-22T11:07:21;100759.69;;;17.86;64.99
73063;BME280;61230;46.328;19.972;2024-03-22T11:09:52;100717.06;;;17.86;64.21
73063;BME280;61230;46.328;19.972;2024-03-22T11:12:26;100750.06;;;18.52;62.24
73063;BME280;61230;46.328;19.972;2024-03-22T11:14:55;100749.69;;;18.69;61.40
73063;BME280;61230;46.328;19.972;2024-03-22T11:17:21;100746.19;;;18.83;59.51
73063;BME280;61230;46.328;19.972;2024-03-22T11:19:51;100744.44;;;18.32;61.19
73063;BME280;61230;46.328;19.972;2024-03-22T11:22:27;100741.38;;;18.20;62.58
73063;BME280;61230;46.328;19.972;2024-03-22T11:24:54;100744.53;;;18.38;61.22
73063;BME280;61230;46.328;19.972;2024-03-22T11:27:21;100740.69;;;17.44;64.71
73063;BME280;61230;46.328;19.972;2024-03-22T11:30:04;100724.63;;;18.49;61.87
73063;BME280;61230;46.328;19.972;2024-03-22T11:32:31;100730.66;;;18.87;59.94
73063;BME280;61230;46.328;19.972;2024-03-22T11:35:00;100693.63;;;18.48;59.66
73063;BME280;61230;46.328;19.972;2024-03-22T11:37:27;100725.63;;;18.63;59.01
73063;BME280;61230;46.328;19.972;2024-03-22T11:39:54;100719.09;;;18.36;59.13
73063;BME280;61230;46.328;19.972;2024-03-22T11:42:20;100714.13;;;18.33;58.19
73063;BME280;61230;46.328;19.972;2024-03-22T11:44:47;100721.06;;;18.05;59.71
73063;BME280;61230;46.328;19.972;2024-03-22T11:47:14;100723.31;;;18.30;58.18
73063;BME280;61230;46.328;19.972;2024-03-22T11:49:41;100711.81;;;18.30;58.38
73063;BME280;61230;46.328;19.972;2024-03-22T11:52:25;100679.09;;;18.07;58.10
73063;BME280;61230;46.328;19.972;2024-03-22T11:54:53;100708.03;;;18.68;57.75
73063;BME280;61230;46.328;19.972;2024-03-22T11:57:22;100704.28;;;18.63;57.31
73063;BME280;61230;46.328;19.972;2024-03-22T11:59:50;100700.88;;;19.05;55.86
73063;BME280;61230;46.328;19.972;2024-03-22T12:02:18;100694.25;;;19.15;54.25
73063;BME280;61230;46.328;19.972;2024-03-22T12:04:46;100702.91;;;18.81;54.29
73063;BME280;61230;46.328;19.972;2024-03-22T12:07:13;100697.41;;;19.40;54.67
73063;BME280;61230;46.328;19.972;2024-03-22T12:09:41;100693.16;;;18.59;56.20
73063;BME280;61230;46.328;19.972;2024-03-22T12:12:09;100691.41;;;18.37;56.95
73063;BME280;61230;46.328;19.972;2024-03-22T12:14:36;100690.75;;;18.79;57.08
73063;BME280;61230;46.328;19.972;2024-03-22T12:17:03;100685.34;;;19.08;56.31
73063;BME280;61230;46.328;19.972;2024-03-22T12:19:30;100682.00;;;19.63;54.79
73063;BME280;61230;46.328;19.972;2024-03-22T12:22:31;100670.97;;;19.73;54.30
73063;BME280;61230;46.328;19.972;2024-03-22T12:24:58;100668.16;;;20.08;53.90
73063;BME280;61230;46.328;19.972;2024-03-22T12:27:25;100631.19;;;19.78;54.20
73063;BME280;61230;46.328;19.972;2024-03-22T12:29:52;100641.50;;;18.75;55.95
73063;BME280;61230;46.328;19.972;2024-03-22T12:32:19;100664.25;;;19.13;57.36
73063;BME280;61230;46.328;19.972;2024-03-22T12:34:45;100660.87;;;18.83;56.93
73063;BME280;61230;46.328;19.972;2024-03-22T12:37:13;100666.22;;;18.69;57.97
73063;BME280;61230;46.328;19.972;2024-03-22T12:39:40;100658.25;;;17.96;60.42
73063;BME280;61230;46.328;19.972;2024-03-22T12:42:07;100661.94;;;18.24;59.65
73063;BME280;61230;46.328;19.972;2024-03-22T12:44:33;100661.00;;;18.97;58.38
73063;BME280;61230;46.328;19.972;2024-03-22T12:47:00;100620.72;;;18.70;57.52
73063;BME280;61230;46.328;19.972;2024-03-22T12:49:27;100656.78;;;18.37;60.12
73063;BME280;61230;46.328;19.972;2024-03-22T12:51:55;100650.53;;;18.30;59.97